Latest Weather Observations for Territory Grape Farm

IDD60801

Issued at 6:31 pm CST Tuesday 24 January 2017 (issued every 30 minutes, with the page automatically refreshed every 10 minutes)

About weather observations | Map of weather stations | Latest weather observations for NT | Other Formats
Station Details ID: 015643 Name: TERRITORY GRAPE FARM Lat: -22.45 Lon: 133.64 Height: 565.6 m
Data from the previous 72 hours. | See also: Recent months at Territory Grape Farm
Date/Time
CST
Temp
°C
App
Temp
°C
Dew
Point
°C
Rel
Hum
%
Delta-T
°C
Wind Press
QNH
hPa
Press
MSL
hPa
Rain since
9am
mm
Dir  Spd
km/h
Gust
km/h
Spd
kts
Gust
kts
24/06:30pm 31.6 31.4 20.5 51 7.5 ESE 22 35 12 19 1010.8 1006.3 0.0
24/06:00pm 32.0 32.2 20.6 51 7.8 ESE 20 28 11 15 1010.4 1005.9 0.0
24/05:30pm 31.6 30.5 20.2 50 7.7 ESE 26 39 14 21 1010.2 1005.7 0.0
24/05:00pm 32.3 31.8 19.9 48 8.4 E 22 35 12 19 1009.5 1005.0 0.0
24/04:30pm 33.3 34.0 21.5 50 8.2 E 20 33 11 18 1009.1 1004.6 0.0
24/04:00pm 33.4 33.9 21.2 48 8.4 E 20 28 11 15 1009.0 1004.4 0.0
24/03:30pm 32.9 33.7 21.4 50 7.9 E 19 30 10 16 1009.4 1004.9 0.0
24/03:00pm 32.5 32.9 21.0 50 7.9 E 20 35 11 19 1009.8 1005.3 0.0
24/02:30pm 33.1 34.9 21.9 51 7.8 ENE 15 24 8 13 1010.3 1005.8 0.0
24/02:00pm 32.7 34.2 21.2 50 7.9 E 15 24 8 13 1010.9 1006.4 0.0
24/01:30pm 32.6 33.8 21.5 52 7.7 ENE 17 24 9 13 1011.4 1006.9 0.0
24/01:00pm 32.0 34.3 22.7 58 6.5 ENE 15 24 8 13 1011.9 1007.4 0.0
24/12:30pm 31.6 34.0 22.3 57 6.5 ENE 13 20 7 11 1012.3 1007.9 0.0
24/12:00pm 31.4 33.3 22.1 57 6.4 ENE 15 24 8 13 1012.6 1008.1 0.0
24/11:30am 31.0 32.8 22.6 61 5.9 NE 17 22 9 12 1012.8 1008.3 0.0
24/11:00am 30.5 31.8 22.4 62 5.6 ENE 19 28 10 15 1013.0 1008.5 0.0
24/10:30am 29.8 32.2 23.0 67 4.7 ENE 15 24 8 13 1013.1 1008.6 0.0
24/10:00am 29.4 31.1 22.4 66 4.8 ENE 17 20 9 11 1013.3 1008.8 0.0
24/09:30am 29.3 32.1 23.0 69 4.4 ENE 13 20 7 11 1013.3 1008.8 0.0
24/09:00am 28.2 30.7 22.4 71 4.0 ENE 13 17 7 9 1013.3 1008.8 1.4
24/08:30am 27.8 30.6 22.3 72 3.8 NE 11 17 6 9 1013.3 1008.8 1.4
24/08:00am 27.4 31.3 23.0 77 3.1 NE 7 13 4 7 1013.4 1008.9 1.4
24/07:30am 26.5 31.5 23.8 85 1.9 E 4 7 2 4 1013.3 1008.8 1.4
24/07:00am 24.6 29.6 23.9 96 0.5 E 4 6 2 3 1013.0 1008.5 1.4
24/06:30am 24.0 29.3 23.7 98 0.2 E 2 4 1 2 1012.4 1008.0 1.4
24/06:00am 23.7 27.9 23.4 98 0.2 ENE 7 9 4 5 1011.4 1006.9 1.4
24/05:30am 23.9 27.7 23.4 97 0.3 ENE 9 11 5 6 1010.8 1006.3 1.4
24/05:00am 23.8 27.8 23.1 96 0.5 ENE 7 9 4 5 1010.4 1005.9 1.4
24/04:30am 24.0 28.0 23.1 95 0.6 ENE 7 9 4 5 1010.3 1005.8 1.4
24/04:00am 24.3 28.0 23.3 94 0.7 ENE 9 11 5 6 1010.3 1005.8 1.4
24/03:30am 24.4 28.6 23.4 94 0.7 NE 7 11 4 6 1010.2 1005.7 1.4
24/03:00am 24.7 28.9 23.5 93 0.8 NE 7 9 4 5 1010.2 1005.7 1.4
24/02:30am 24.6 28.9 23.6 94 0.7 ENE 7 11 4 6 1010.2 1005.7 1.4
24/02:00am 24.5 29.5 23.8 96 0.5 SE 4 6 2 3 1010.2 1005.7 1.4
24/01:30am 24.4 29.3 23.7 96 0.5 SE 4 6 2 3 1010.3 1005.8 1.4
24/01:00am 24.7 30.4 23.8 95 0.6 CALM 0 0 0 0 1010.4 1005.9 1.4
24/12:30am 24.9 29.4 23.7 93 0.8 NE 6 7 3 4 1011.0 1006.5 1.4
24/12:00am 25.2 30.3 24.0 93 0.8 NE 4 4 2 2 1011.2 1006.7 1.4
 
Date/Time
CST
Temp
°C
App
Temp
°C
Dew
Point
°C
Rel
Hum
%
Delta-T
°C
Wind Press
QNH
hPa
Press
MSL
hPa
Rain since
9am
mm
Dir  Spd
km/h
Gust
km/h
Spd
kts
Gust
kts
23/11:30pm 25.4 30.7 24.4 94 0.7 ESE 4 4 2 2 1011.2 1006.7 1.4
23/11:00pm 25.7 30.8 24.1 91 1.1 ESE 4 4 2 2 1011.5 1007.0 1.4
23/10:30pm 25.8 30.4 23.8 89 1.4 ENE 6 6 3 3 1011.7 1007.2 1.4
23/10:00pm 25.9 31.0 24.7 93 0.8 ESE 6 6 3 3 1011.7 1007.2 1.4
23/09:30pm 25.9 30.8 24.3 91 1.1 E 6 6 3 3 1011.4 1006.9 1.4
23/09:00pm 26.2 30.7 23.9 87 1.6 ENE 7 9 4 5 1011.3 1006.8 1.4
23/08:30pm 26.6 30.6 23.7 84 2.0 ENE 9 11 5 6 1011.0 1006.5 1.4
23/08:00pm 27.0 30.7 23.3 80 2.6 E 9 11 5 6 1010.3 1005.8 1.4
23/07:30pm 27.2 31.4 23.4 80 2.7 E 7 7 4 4 1009.9 1005.4 1.4
23/07:00pm 28.1 31.4 22.6 72 3.8 E 9 9 5 5 1009.1 1004.6 1.4
23/06:30pm 30.4 34.3 20.3 54 6.8 CALM 0 0 0 0 1008.5 1004.0 1.4
23/06:00pm 30.9 34.3 20.2 53 7.2 SSW 2 4 1 2 1007.9 1003.4 1.4
23/05:30pm 31.5 35.0 19.5 49 8.1 CALM 0 2 0 1 1007.5 1003.0 1.4
23/05:00pm 31.1 33.9 20.4 53 7.2 SE 6 7 3 4 1007.5 1003.0 1.4
23/04:30pm 30.8 33.8 19.2 50 7.7 ESE 2 6 1 3 1007.8 1003.3 1.4
23/04:00pm 30.2 33.3 19.6 53 7.1 SE 2 6 1 3 1008.2 1003.7 1.4
23/03:30pm 29.8 32.7 19.8 55 6.7 SE 4 4 2 2 1008.6 1004.1 1.4
23/03:00pm 29.2 32.4 21.2 62 5.5 SE 6 9 3 5 1009.3 1004.8 1.4
23/02:30pm 28.4 31.6 21.7 67 4.6 SSW 7 11 4 6 1009.6 1005.1 1.4
23/02:00pm 28.0 31.9 22.9 74 3.5 S 7 11 4 6 1010.1 1005.6 1.4
23/01:30pm 27.2 30.9 23.9 82 2.3 SW 11 15 6 8 1010.5 1006.0 1.4
23/01:00pm 26.2 29.2 23.3 84 2.0 SW 13 17 7 9 1011.1 1006.6 1.4
23/12:30pm 25.8 29.9 24.6 93 0.8 WSW 11 17 6 9 1011.6 1007.1 1.4
23/12:00pm 24.9 29.8 23.1 90 1.2 N 2 6 1 3 1012.3 1007.9 1.4
23/11:30am 24.7 30.1 23.3 92 1.0 CALM 0 0 0 0 1012.6 1008.1 1.4
23/11:00am 24.5 29.7 24.2 98 0.2 SSW 4 6 2 3 1012.4 1008.0 1.4
23/10:30am 24.3 29.2 24.3 100 0.0 WSW 6 7 3 4 1012.7 1008.2 1.2
23/10:00am 24.1 29.1 23.9 99 0.1 SSW 4 6 2 3 1013.2 1008.7 0.6
23/09:30am 23.9 29.7 23.9 100 0.0 CALM 0 2 0 1 1013.4 1008.9 0.2
23/09:00am 23.6 29.2 23.6 100 0.0 CALM 0 2 0 1 1013.3 1008.8 8.4
23/08:30am 23.5 27.9 23.5 100 0.0 N 6 7 3 4 1013.0 1008.5 8.0
23/08:00am 23.5 27.3 23.5 100 0.0 NNE 9 11 5 6 1012.9 1008.4 7.2
23/07:30am 23.6 27.5 23.6 100 0.0 NE 9 13 5 7 1012.8 1008.3 6.2
23/07:00am 23.6 27.5 23.6 100 0.0 N 9 15 5 8 1012.0 1007.5 5.0
23/06:30am 23.5 27.3 23.5 100 0.0 N 9 13 5 7 1011.1 1006.6 4.4
23/06:00am 23.6 28.3 23.4 99 0.1 NNW 4 6 2 3 1010.7 1006.1 3.6
23/05:30am 23.4 28.0 23.2 99 0.1 E 4 7 2 4 1009.9 1005.4 3.4
23/05:00am 23.5 27.4 23.0 97 0.3 E 7 11 4 6 1009.6 1005.1 3.0
23/04:30am 23.5 27.2 23.3 99 0.1 E 9 11 5 6 1009.5 1005.0 3.0
23/04:00am 23.5 27.0 22.8 96 0.5 SE 9 15 5 8 1009.3 1004.8 3.0
23/03:30am 23.8 27.7 23.0 95 0.6 ESE 7 11 4 6 1009.6 1005.1 2.4
23/03:00am 23.7 27.2 22.9 95 0.6 NE 9 11 5 6 1009.2 1004.7 2.2
23/02:30am 24.0 26.9 22.4 91 1.1 ENE 11 19 6 10 1009.4 1004.9 1.4
23/02:00am 25.7 28.8 22.2 81 2.4 ENE 9 15 5 8 1009.4 1004.9 0.2
23/01:30am 27.1 28.2 21.2 70 4.0 E 17 32 9 17 1009.2 1004.7 0.2
23/01:00am 27.5 31.5 23.7 80 2.7 NE 9 13 5 7 1008.9 1004.3 0.2
23/12:30am 27.2 32.3 24.7 86 1.8 NNE 6 9 3 5 1009.2 1004.7 0.2
23/12:00am 27.3 32.1 24.2 83 2.2 NNW 6 7 3 4 1009.4 1004.9 0.2
 
Date/Time
CST
Temp
°C
App
Temp
°C
Dew
Point
°C
Rel
Hum
%
Delta-T
°C
Wind Press
QNH
hPa
Press
MSL
hPa
Rain since
9am
mm
Dir  Spd
km/h
Gust
km/h
Spd
kts
Gust
kts
22/11:30pm 27.9 32.9 24.5 82 2.4 NNW 6 7 3 4 1009.4 1004.9 0.2
22/11:00pm 28.3 33.2 24.7 81 2.6 NNW 7 7 4 4 1009.8 1005.3 0.2
22/10:30pm 28.4 34.5 25.6 85 2.0 NNE 4 6 2 3 1010.2 1005.7 0.2
22/10:00pm 28.8 35.1 25.4 82 2.4 N 2 2 1 1 1010.2 1005.7 0.2
22/09:30pm 28.9 34.9 25.5 82 2.4 N 4 6 2 3 1009.7 1005.2 0.2
22/09:00pm 29.2 34.7 24.7 77 3.2 N 4 4 2 2 1009.4 1004.9 0.2
22/08:30pm 29.3 34.0 24.0 73 3.7 N 6 6 3 3 1009.3 1004.8 0.2
22/08:00pm 30.0 34.5 23.7 69 4.4 N 6 7 3 4 1009.0 1004.4 0.2
22/07:30pm 30.7 33.8 21.5 58 6.3 N 7 9 4 5 1008.5 1004.0 0.2
22/07:00pm 32.2 34.4 20.5 50 8.0 N 9 13 5 7 1007.9 1003.4 0.2
22/06:30pm 33.9 36.8 20.6 45 9.1 NE 6 9 3 5 1007.6 1003.1 0.2
22/06:00pm 34.2 37.8 21.3 47 8.9 NE 4 11 2 6 1007.4 1002.8 0.2
22/05:30pm 34.7 38.6 20.3 43 9.8 CALM 0 4 0 2 1007.3 1002.7 0.2
22/05:00pm 34.5 38.1 19.7 41 10.0 CALM 0 2 0 1 1007.3 1002.7 0.2
22/04:30pm 34.3 37.4 21.0 45 9.2 E 6 11 3 6 1007.6 1003.1 0.2
22/04:00pm 34.7 38.7 21.4 46 9.2 SW 2 4 1 2 1008.2 1003.7 0.2
22/03:30pm 33.6 37.5 21.1 48 8.6 ENE 2 6 1 3 1008.8 1004.2 0.2
22/03:00pm 33.5 37.3 21.6 49 8.2 SSW 4 11 2 6 1009.2 1004.7 0.2
22/02:30pm 33.2 36.9 22.6 53 7.4 SSE 7 11 4 6 1009.5 1005.0 0.2
22/02:00pm 32.8 36.6 21.6 51 7.7 NE 4 6 2 3 1010.0 1005.5 0.2
22/01:30pm 32.5 36.1 22.3 55 7.1 SW 7 9 4 5 1010.3 1005.8 0.2
22/01:00pm 32.3 36.3 22.1 55 7.1 S 4 9 2 5 1010.9 1006.4 0.2
22/12:30pm 32.3 37.7 23.8 61 6.0 SE 2 4 1 2 1011.2 1006.7 0.2
22/12:00pm 31.6 35.3 22.3 57 6.5 E 6 13 3 7 1011.6 1007.1 0.2
22/11:30am 30.8 34.1 20.7 55 6.9 NE 4 9 2 5 1012.1 1007.6 0.2
22/11:00am 30.1 34.6 22.3 63 5.4 W 2 6 1 3 1012.7 1008.2 0.2
22/10:30am 29.4 33.4 23.1 69 4.4 NNE 7 13 4 7 1012.9 1008.4 0.2
22/10:00am 28.5 32.2 23.9 76 3.2 NNE 11 19 6 10 1013.1 1008.6 0.0
22/09:30am 26.4 29.0 23.3 83 2.2 N 15 20 8 11 1013.4 1008.9 0.0
22/09:00am 25.3 28.0 23.4 89 1.3 N 15 19 8 10 1013.5 1009.0 32.2
22/08:30am 24.2 28.0 24.0 99 0.1 NNW 11 15 6 8 1013.7 1009.2 32.2
22/08:00am 23.6 27.1 23.6 100 0.0 N 11 15 6 8 1013.4 1008.9 32.2
22/07:30am 23.2 27.3 23.2 100 0.0 NE 7 11 4 6 1013.2 1008.7 32.0
22/07:00am 23.1 27.1 23.1 100 0.0 ENE 7 9 4 5 1012.6 1008.1 31.4
22/06:30am 23.0 26.6 23.0 100 0.0 E 9 13 5 7 1012.0 1007.5 31.2
22/06:00am 23.0 26.9 23.0 100 0.0 ESE 7 13 4 7 1011.6 1007.1 30.8
22/05:30am 23.1 26.7 23.1 100 0.0 E 9 11 5 6 1011.7 1007.2 30.6
22/05:00am 23.0 25.8 23.0 100 0.0 E 13 19 7 10 1011.7 1007.2 30.4
22/04:30am 23.0 25.4 23.0 100 0.0 E 15 19 8 10 1011.6 1007.1 29.2
22/04:00am 22.9 26.8 22.9 100 0.0 ENE 7 9 4 5 1010.9 1006.4 27.6
22/03:30am 22.6 25.9 22.6 100 0.0 ENE 9 15 5 8 1011.4 1006.9 26.8
22/03:00am 22.4 24.1 22.4 100 0.0 NE 17 26 9 14 1012.1 1007.6 23.0
22/02:30am 22.9 23.9 22.9 100 0.0 NNE 22 30 12 16 1013.0 1008.5 4.0
22/02:00am 24.1 25.6 22.7 92 1.0 N 19 32 10 17 1011.5 1007.0 0.0
22/01:30am 25.8 30.2 22.1 80 2.5 SSW 2 6 1 3 1011.5 1007.0 0.0
22/01:00am 25.6 28.3 22.1 81 2.4 S 11 19 6 10 1011.6 1007.1 0.0
22/12:30am 25.9 28.0 22.4 81 2.4 SSE 15 20 8 11 1011.9 1007.4 0.0
22/12:00am 26.3 27.5 21.5 75 3.3 SE 17 22 9 12 1012.2 1007.7 0.0
 
Date/Time
CST
Temp
°C
App
Temp
°C
Dew
Point
°C
Rel
Hum
%
Delta-T
°C
Wind Press
QNH
hPa
Press
MSL
hPa
Rain since
9am
mm
Dir  Spd
km/h
Gust
km/h
Spd
kts
Gust
kts
21/11:30pm 28.4 29.6 21.4 66 4.8 SE 17 24 9 13 1012.0 1007.5 0.0
21/11:00pm 28.4 32.4 23.1 73 3.7 E 7 9 4 5 1011.4 1006.9 0.0
21/10:30pm 28.1 31.7 22.3 70 4.0 SE 7 7 4 4 1011.5 1007.0 0.0
21/10:00pm 29.3 32.8 21.8 64 5.1 SSW 6 9 3 5 1011.4 1006.9 0.0
21/09:30pm 29.3 33.5 23.5 71 4.1 SSE 7 9 4 5 1010.9 1006.4 0.0
21/09:00pm 29.3 33.5 23.5 71 4.1 ESE 7 9 4 5 1010.3 1005.8 0.0
21/08:30pm 29.6 33.6 22.8 67 4.7 E 6 7 3 4 1009.8 1005.3 0.0
21/08:00pm 29.8 32.8 22.0 63 5.4 ESE 9 11 5 6 1009.5 1005.0 0.0
21/07:30pm 30.0 32.5 21.1 59 6.1 SE 9 11 5 6 1009.2 1004.7 0.0
21/07:00pm 30.0 30.6 21.4 60 5.9 E 20 28 11 15 1008.8 1004.2 0.0

Other Formats:

Comma delimited format used in spreadsheet applications
http://www.bom.gov.au/fwo/IDD60801/IDD60801.94328.axf

JavaScript Object Notation format (JSON) in row-major order
http://www.bom.gov.au/fwo/IDD60801/IDD60801.94328.json